Bodega Bay, California
Current Conditions -  °F | °C
As of 3:53 PM on Friday 28 Nov 2014 (Local Time) from KSTS Reporting Station
Overcast Overcast  
Wind Chill: 58°   Ceiling: 1800
Heat Index: 58°   Visibility: 10mi
Dew Point: 53°   Wind: 3mph
Humidity: 84%   Direction: 190°S
Pressure: 29.89"   Gusts: NA
Location:  38.32°N, 123.03°W
Report Text: KSTS 282353Z 19003KT 10SM OVC018 14/12 A2989 RMK AO2 SLP115 T01440117 10156 20094 56016
Loading
Personal Weather Stations






























Interactive Weather Map New forecast layout! Learn more

10-Day Weather Forecast

Advertisements
Track Severe Weather on mobile